Sallum Plateau, Egypt
Current Conditions -  °F | °C
As of 4:00 AM on Saturday 22 Nov 2014 (Local Time) from HEMM Reporting Station
Scattered Clouds Scattered Clouds  
Wind Chill: 59°   Ceiling: Unl
Heat Index: 59°   Visibility: 6mi
Dew Point: 54°   Wind: 5mph
Humidity: 82%   Direction: 360°N
Pressure: 30.06"   Gusts: NA
Location:  31.57°N, 25.13°E
Report Text: HEMM 220200Z 36004KT 9999 SCT020 15/12 Q1018 NOSIG
Loading
Personal Weather Stations






























Interactive Weather Map New forecast layout! Learn more

10-Day Weather Forecast

Advertisements
Track Severe Weather on mobile